Harbour Breton, Canada
Current Conditions -  °F | °C
As of 4:00 PM on Friday 21 Nov 2014 (Local Time) from CYQX Reporting Station
Scattered Clouds Scattered Clouds  
Wind Chill: 28°   Ceiling: Unl
Heat Index: 37°   Visibility: 15mi
Dew Point: 28°   Wind: 17mph
Humidity: 70%   Direction: 230°SW
Pressure: 29.36"   Gusts: 29mph
Location:  47.48°N, 55.83°W
Report Text: CYQX 211900Z 23015G25KT 15SM FEW024 SCT048 SCT260 03/M02 A2936 RMK CU1SC2CI1 VIS LWR W SLP949
Loading
Personal Weather Stations






























Interactive Weather Map New forecast layout! Learn more

10-Day Weather Forecast

Advertisements
Track Severe Weather on mobile